sensor_id;sensor_type;location;lat;lon;timestamp;temperature;humidity
3788;DHT22;1909;53.046;8.276;2023-03-21T00:00:03;8.60;99.90
3788;DHT22;1909;53.046;8.276;2023-03-21T00:02:31;8.60;99.90
3788;DHT22;1909;53.046;8.276;2023-03-21T00:04:59;8.50;99.90
3788;DHT22;1909;53.046;8.276;2023-03-21T00:07:26;8.50;99.90
3788;DHT22;1909;53.046;8.276;2023-03-21T00:09:52;8.50;99.90
3788;DHT22;1909;53.046;8.276;2023-03-21T00:12:19;8.50;99.90
3788;DHT22;1909;53.046;8.276;2023-03-21T00:14:46;8.50;99.90
3788;DHT22;1909;53.046;8.276;2023-03-21T00:17:12;8.50;99.90
3788;DHT22;1909;53.046;8.276;2023-03-21T00:19:40;8.50;99.90
3788;DHT22;1909;53.046;8.276;2023-03-21T00:22:08;8.50;99.90
3788;DHT22;1909;53.046;8.276;2023-03-21T00:24:34;8.50;99.90
3788;DHT22;1909;53.046;8.276;2023-03-21T00:27:01;8.10;99.90
3788;DHT22;1909;53.046;8.276;2023-03-21T00:29:27;8.50;99.90
3788;DHT22;1909;53.046;8.276;2023-03-21T00:31:54;8.50;99.90
3788;DHT22;1909;53.046;8.276;2023-03-21T00:34:21;8.60;99.90
3788;DHT22;1909;53.046;8.276;2023-03-21T00:36:47;8.60;99.90
3788;DHT22;1909;53.046;8.276;2023-03-21T00:39:15;8.50;99.90
3788;DHT22;1909;53.046;8.276;2023-03-21T00:41:42;8.50;99.90
3788;DHT22;1909;53.046;8.276;2023-03-21T00:44:09;8.50;99.90
3788;DHT22;1909;53.046;8.276;2023-03-21T00:46:37;8.50;99.90
3788;DHT22;1909;53.046;8.276;2023-03-21T00:49:04;8.50;99.90
3788;DHT22;1909;53.046;8.276;2023-03-21T00:51:30;8.50;99.90
3788;DHT22;1909;53.046;8.276;2023-03-21T00:53:57;8.50;99.90
3788;DHT22;1909;53.046;8.276;2023-03-21T00:56:25;8.50;99.90
3788;DHT22;1909;53.046;8.276;2023-03-21T00:58:52;8.50;99.90
3788;DHT22;1909;53.046;8.276;2023-03-21T01:01:18;8.50;99.90
3788;DHT22;1909;53.046;8.276;2023-03-21T01:03:45;8.50;99.90
3788;DHT22;1909;53.046;8.276;2023-03-21T01:06:15;8.50;99.90
3788;DHT22;1909;53.046;8.276;2023-03-21T01:08:43;8.50;99.90
3788;DHT22;1909;53.046;8.276;2023-03-21T01:11:11;8.60;99.90
3788;DHT22;1909;53.046;8.276;2023-03-21T01:13:39;8.50;99.90
3788;DHT22;1909;53.046;8.276;2023-03-21T01:16:07;8.50;99.90
3788;DHT22;1909;53.046;8.276;2023-03-21T01:18:35;8.50;99.90
3788;DHT22;1909;53.046;8.276;2023-03-21T01:21:05;8.50;99.90
3788;DHT22;1909;53.046;8.276;2023-03-21T01:23:31;8.60;99.90
3788;DHT22;1909;53.046;8.276;2023-03-21T01:25:58;8.50;99.90
3788;DHT22;1909;53.046;8.276;2023-03-21T01:28:25;8.60;99.90
3788;DHT22;1909;53.046;8.276;2023-03-21T01:30:53;8.50;99.90
3788;DHT22;1909;53.046;8.276;2023-03-21T01:33:20;8.60;99.90
3788;DHT22;1909;53.046;8.276;2023-03-21T01:35:47;8.50;99.90
3788;DHT22;1909;53.046;8.276;2023-03-21T01:38:14;8.50;99.90
3788;DHT22;1909;53.046;8.276;2023-03-21T01:40:40;8.60;99.90
3788;DHT22;1909;53.046;8.276;2023-03-21T01:43:16;8.50;99.90
3788;DHT22;1909;53.046;8.276;2023-03-21T01:48:47;8.50;99.90
3788;DHT22;1909;53.046;8.276;2023-03-21T01:51:15;8.50;99.90
3788;DHT22;1909;53.046;8.276;2023-03-21T01:53:42;8.50;99.90
3788;DHT22;1909;53.046;8.276;2023-03-21T01:56:11;8.50;99.90
3788;DHT22;1909;53.046;8.276;2023-03-21T01:58:39;8.50;99.90
3788;DHT22;1909;53.046;8.276;2023-03-21T02:01:07;8.50;99.90
3788;DHT22;1909;53.046;8.276;2023-03-21T02:03:34;8.50;99.90
3788;DHT22;1909;53.046;8.276;2023-03-21T02:06:06;8.50;99.90
3788;DHT22;1909;53.046;8.276;2023-03-21T02:08:34;8.50;99.90
3788;DHT22;1909;53.046;8.276;2023-03-21T02:11:01;8.50;99.90
3788;DHT22;1909;53.046;8.276;2023-03-21T02:13:28;8.50;99.90
3788;DHT22;1909;53.046;8.276;2023-03-21T02:15:56;8.50;99.90
3788;DHT22;1909;53.046;8.276;2023-03-21T02:18:26;8.50;99.90
3788;DHT22;1909;53.046;8.276;2023-03-21T02:21:00;8.60;99.90
3788;DHT22;1909;53.046;8.276;2023-03-21T02:26:22;8.50;99.90
3788;DHT22;1909;53.046;8.276;2023-03-21T02:28:52;8.50;99.90
3788;DHT22;1909;53.046;8.276;2023-03-21T02:31:29;8.50;99.90
3788;DHT22;1909;53.046;8.276;2023-03-21T02:34:01;8.50;99.90
3788;DHT22;1909;53.046;8.276;2023-03-21T02:36:46;8.50;99.90
3788;DHT22;1909;53.046;8.276;2023-03-21T02:39:13;8.50;99.90
3788;DHT22;1909;53.046;8.276;2023-03-21T02:41:44;8.50;99.90
3788;DHT22;1909;53.046;8.276;2023-03-21T02:44:14;8.50;99.90
3788;DHT22;1909;53.046;8.276;2023-03-21T02:46:42;8.60;99.90
3788;DHT22;1909;53.046;8.276;2023-03-21T02:49:11;8.60;99.90
3788;DHT22;1909;53.046;8.276;2023-03-21T02:51:41;8.60;99.90
3788;DHT22;1909;53.046;8.276;2023-03-21T02:54:11;8.60;99.90
3788;DHT22;1909;53.046;8.276;2023-03-21T02:56:39;8.50;99.90
3788;DHT22;1909;53.046;8.276;2023-03-21T02:59:07;8.60;99.90
3788;DHT22;1909;53.046;8.276;2023-03-21T03:01:34;8.60;99.90
3788;DHT22;1909;53.046;8.276;2023-03-21T03:04:00;8.50;99.90
3788;DHT22;1909;53.046;8.276;2023-03-21T03:06:28;8.60;99.90
3788;DHT22;1909;53.046;8.276;2023-03-21T03:09:02;8.80;99.90
3788;DHT22;1909;53.046;8.276;2023-03-21T03:11:34;8.50;99.90
3788;DHT22;1909;53.046;8.276;2023-03-21T03:14:07;8.70;99.90
3788;DHT22;1909;53.046;8.276;2023-03-21T03:16:38;8.60;99.90
3788;DHT22;1909;53.046;8.276;2023-03-21T03:19:06;8.70;99.90
3788;DHT22;1909;53.046;8.276;2023-03-21T03:21:36;8.70;99.90
3788;DHT22;1909;53.046;8.276;2023-03-21T03:24:06;8.70;99.90
3788;DHT22;1909;53.046;8.276;2023-03-21T03:26:35;8.60;99.90
3788;DHT22;1909;53.046;8.276;2023-03-21T03:29:05;8.60;99.90
3788;DHT22;1909;53.046;8.276;2023-03-21T03:31:33;8.60;99.90
3788;DHT22;1909;53.046;8.276;2023-03-21T03:34:04;8.60;99.90
3788;DHT22;1909;53.046;8.276;2023-03-21T03:36:33;8.60;99.90
3788;DHT22;1909;53.046;8.276;2023-03-21T03:39:03;8.60;99.90
3788;DHT22;1909;53.046;8.276;2023-03-21T03:41:31;8.60;99.90
3788;DHT22;1909;53.046;8.276;2023-03-21T03:44:02;8.70;99.90
3788;DHT22;1909;53.046;8.276;2023-03-21T03:46:29;8.60;99.90
3788;DHT22;1909;53.046;8.276;2023-03-21T03:48:59;8.70;99.90
3788;DHT22;1909;53.046;8.276;2023-03-21T03:51:29;8.70;99.90
3788;DHT22;1909;53.046;8.276;2023-03-21T03:53:58;8.70;99.90
3788;DHT22;1909;53.046;8.276;2023-03-21T03:56:26;8.60;99.90
3788;DHT22;1909;53.046;8.276;2023-03-21T03:58:52;8.70;99.90
3788;DHT22;1909;53.046;8.276;2023-03-21T04:01:20;8.70;99.90
3788;DHT22;1909;53.046;8.276;2023-03-21T04:03:47;8.60;99.90
3788;DHT22;1909;53.046;8.276;2023-03-21T04:06:14;8.80;99.90
3788;DHT22;1909;53.046;8.276;2023-03-21T04:08:41;8.80;99.90
3788;DHT22;1909;53.046;8.276;2023-03-21T04:11:08;8.70;99.90
3788;DHT22;1909;53.046;8.276;2023-03-21T04:13:35;8.70;99.90
3788;DHT22;1909;53.046;8.276;2023-03-21T04:16:02;8.80;99.90
3788;DHT22;1909;53.046;8.276;2023-03-21T04:18:30;8.70;99.90
3788;DHT22;1909;53.046;8.276;2023-03-21T04:20:56;8.70;99.90
3788;DHT22;1909;53.046;8.276;2023-03-21T04:23:23;8.70;99.90
3788;DHT22;1909;53.046;8.276;2023-03-21T04:25:50;8.70;99.90
3788;DHT22;1909;53.046;8.276;2023-03-21T04:28:17;8.70;99.90
3788;DHT22;1909;53.046;8.276;2023-03-21T04:30:47;8.70;99.90
3788;DHT22;1909;53.046;8.276;2023-03-21T04:33:14;8.70;99.90
3788;DHT22;1909;53.046;8.276;2023-03-21T04:35:42;8.80;99.90
3788;DHT22;1909;53.046;8.276;2023-03-21T04:38:10;8.70;99.90
3788;DHT22;1909;53.046;8.276;2023-03-21T04:40:37;8.80;99.90
3788;DHT22;1909;53.046;8.276;2023-03-21T04:43:03;8.70;99.90
3788;DHT22;1909;53.046;8.276;2023-03-21T04:45:30;8.80;99.90
3788;DHT22;1909;53.046;8.276;2023-03-21T04:47:56;8.70;99.90
3788;DHT22;1909;53.046;8.276;2023-03-21T04:50:23;8.90;99.90
3788;DHT22;1909;53.046;8.276;2023-03-21T04:52:51;8.80;99.90
3788;DHT22;1909;53.046;8.276;2023-03-21T04:55:17;8.80;99.90
3788;DHT22;1909;53.046;8.276;2023-03-21T04:57:46;8.80;99.90
3788;DHT22;1909;53.046;8.276;2023-03-21T05:00:13;8.80;99.90
3788;DHT22;1909;53.046;8.276;2023-03-21T05:02:39;8.80;99.90
3788;DHT22;1909;53.046;8.276;2023-03-21T05:05:06;8.80;99.90
3788;DHT22;1909;53.046;8.276;2023-03-21T05:07:35;8.80;99.90
3788;DHT22;1909;53.046;8.276;2023-03-21T05:10:04;8.70;99.90
3788;DHT22;1909;53.046;8.276;2023-03-21T05:12:31;8.80;99.90
3788;DHT22;1909;53.046;8.276;2023-03-21T05:14:57;8.70;99.90
3788;DHT22;1909;53.046;8.276;2023-03-21T05:17:24;8.80;99.90
3788;DHT22;1909;53.046;8.276;2023-03-21T05:19:52;8.80;99.90
3788;DHT22;1909;53.046;8.276;2023-03-21T05:22:21;8.70;99.90
3788;DHT22;1909;53.046;8.276;2023-03-21T05:24:48;8.70;99.90
3788;DHT22;1909;53.046;8.276;2023-03-21T05:27:17;8.70;99.90
3788;DHT22;1909;53.046;8.276;2023-03-21T05:29:58;8.80;99.90
3788;DHT22;1909;53.046;8.276;2023-03-21T05:32:25;8.80;99.90
3788;DHT22;1909;53.046;8.276;2023-03-21T05:34:51;8.80;99.90
3788;DHT22;1909;53.046;8.276;2023-03-21T05:37:18;8.70;99.90
3788;DHT22;1909;53.046;8.276;2023-03-21T05:39:44;8.70;99.90
3788;DHT22;1909;53.046;8.276;2023-03-21T05:42:11;8.70;99.90
3788;DHT22;1909;53.046;8.276;2023-03-21T05:44:39;8.70;99.90
3788;DHT22;1909;53.046;8.276;2023-03-21T05:47:05;8.70;99.90
3788;DHT22;1909;53.046;8.276;2023-03-21T05:49:32;8.70;99.90
3788;DHT22;1909;53.046;8.276;2023-03-21T05:51:59;8.70;99.90
3788;DHT22;1909;53.046;8.276;2023-03-21T05:54:26;8.70;99.90
3788;DHT22;1909;53.046;8.276;2023-03-21T05:56:52;8.70;99.90
3788;DHT22;1909;53.046;8.276;2023-03-21T05:59:19;8.70;99.90
3788;DHT22;1909;53.046;8.276;2023-03-21T06:01:46;8.70;99.90
3788;DHT22;1909;53.046;8.276;2023-03-21T06:04:13;8.70;99.90
3788;DHT22;1909;53.046;8.276;2023-03-21T06:06:40;8.70;99.90
3788;DHT22;1909;53.046;8.276;2023-03-21T06:09:07;8.70;99.90
3788;DHT22;1909;53.046;8.276;2023-03-21T06:11:35;8.70;99.90
3788;DHT22;1909;53.046;8.276;2023-03-21T06:14:01;8.80;99.90
3788;DHT22;1909;53.046;8.276;2023-03-21T06:16:28;8.80;99.90
3788;DHT22;1909;53.046;8.276;2023-03-21T06:18:56;8.80;99.90
3788;DHT22;1909;53.046;8.276;2023-03-21T06:21:23;8.70;99.90
3788;DHT22;1909;53.046;8.276;2023-03-21T06:23:49;8.70;99.90
3788;DHT22;1909;53.046;8.276;2023-03-21T06:26:16;8.70;99.90
3788;DHT22;1909;53.046;8.276;2023-03-21T06:28:47;8.70;99.90
3788;DHT22;1909;53.046;8.276;2023-03-21T06:31:13;8.70;99.90
3788;DHT22;1909;53.046;8.276;2023-03-21T06:33:40;8.70;99.90
3788;DHT22;1909;53.046;8.276;2023-03-21T06:36:08;8.70;99.90
3788;DHT22;1909;53.046;8.276;2023-03-21T06:38:35;8.80;99.90
3788;DHT22;1909;53.046;8.276;2023-03-21T06:41:02;8.80;99.90
3788;DHT22;1909;53.046;8.276;2023-03-21T06:43:29;8.80;99.90
3788;DHT22;1909;53.046;8.276;2023-03-21T06:45:56;8.80;99.90
3788;DHT22;1909;53.046;8.276;2023-03-21T06:48:23;8.90;99.90
3788;DHT22;1909;53.046;8.276;2023-03-21T06:50:50;8.80;99.90
3788;DHT22;1909;53.046;8.276;2023-03-21T06:53:18;8.90;99.90
3788;DHT22;1909;53.046;8.276;2023-03-21T06:55:48;8.90;99.90
3788;DHT22;1909;53.046;8.276;2023-03-21T06:58:15;8.90;99.90
3788;DHT22;1909;53.046;8.276;2023-03-21T07:00:42;8.90;99.90
3788;DHT22;1909;53.046;8.276;2023-03-21T07:03:09;8.90;99.90
3788;DHT22;1909;53.046;8.276;2023-03-21T07:05:35;8.90;99.90
3788;DHT22;1909;53.046;8.276;2023-03-21T07:08:02;8.90;99.90
3788;DHT22;1909;53.046;8.276;2023-03-21T07:10:30;8.90;99.90
3788;DHT22;1909;53.046;8.276;2023-03-21T07:12:57;8.90;99.90
3788;DHT22;1909;53.046;8.276;2023-03-21T07:15:24;8.90;99.90
3788;DHT22;1909;53.046;8.276;2023-03-21T07:17:50;8.90;99.90
3788;DHT22;1909;53.046;8.276;2023-03-21T07:20:17;8.90;99.90
3788;DHT22;1909;53.046;8.276;2023-03-21T07:22:43;9.00;99.90
3788;DHT22;1909;53.046;8.276;2023-03-21T07:25:10;8.90;99.90
3788;DHT22;1909;53.046;8.276;2023-03-21T07:27:38;8.90;99.90
3788;DHT22;1909;53.046;8.276;2023-03-21T07:30:05;9.00;99.90
3788;DHT22;1909;53.046;8.276;2023-03-21T07:32:32;9.00;99.90
3788;DHT22;1909;53.046;8.276;2023-03-21T07:34:58;8.90;99.90
3788;DHT22;1909;53.046;8.276;2023-03-21T07:37:26;9.00;99.90
3788;DHT22;1909;53.046;8.276;2023-03-21T07:39:52;9.00;99.90
3788;DHT22;1909;53.046;8.276;2023-03-21T07:42:19;9.10;99.90
3788;DHT22;1909;53.046;8.276;2023-03-21T07:44:47;9.10;99.90
3788;DHT22;1909;53.046;8.276;2023-03-21T07:47:15;9.00;99.90
3788;DHT22;1909;53.046;8.276;2023-03-21T07:49:41;9.10;99.90
3788;DHT22;1909;53.046;8.276;2023-03-21T07:52:08;9.20;99.90
3788;DHT22;1909;53.046;8.276;2023-03-21T07:54:34;9.00;99.90
3788;DHT22;1909;53.046;8.276;2023-03-21T07:57:01;9.10;99.90
3788;DHT22;1909;53.046;8.276;2023-03-21T07:59:28;9.20;99.90
3788;DHT22;1909;53.046;8.276;2023-03-21T08:01:56;9.30;99.90
3788;DHT22;1909;53.046;8.276;2023-03-21T08:04:23;9.20;99.90
3788;DHT22;1909;53.046;8.276;2023-03-21T08:06:50;9.20;99.90
3788;DHT22;1909;53.046;8.276;2023-03-21T08:09:16;9.20;99.90
3788;DHT22;1909;53.046;8.276;2023-03-21T08:11:43;9.20;99.90
3788;DHT22;1909;53.046;8.276;2023-03-21T08:14:09;9.20;99.90
3788;DHT22;1909;53.046;8.276;2023-03-21T08:16:36;9.10;99.90
3788;DHT22;1909;53.046;8.276;2023-03-21T08:19:04;9.20;99.90
3788;DHT22;1909;53.046;8.276;2023-03-21T08:21:31;9.20;99.90
3788;DHT22;1909;53.046;8.276;2023-03-21T08:23:57;9.30;99.90
3788;DHT22;1909;53.046;8.276;2023-03-21T08:26:24;9.50;99.90
3788;DHT22;1909;53.046;8.276;2023-03-21T08:28:51;9.30;99.90
3788;DHT22;1909;53.046;8.276;2023-03-21T08:31:17;9.40;99.90
3788;DHT22;1909;53.046;8.276;2023-03-21T08:33:45;9.30;99.90
3788;DHT22;1909;53.046;8.276;2023-03-21T08:36:16;9.40;99.90
3788;DHT22;1909;53.046;8.276;2023-03-21T08:38:43;9.30;99.90
3788;DHT22;1909;53.046;8.276;2023-03-21T08:41:12;9.30;99.90
3788;DHT22;1909;53.046;8.276;2023-03-21T08:43:38;9.40;99.90
3788;DHT22;1909;53.046;8.276;2023-03-21T08:46:05;9.40;99.90
3788;DHT22;1909;53.046;8.276;2023-03-21T08:48:32;9.40;99.90
3788;DHT22;1909;53.046;8.276;2023-03-21T08:50:58;9.40;99.90
3788;DHT22;1909;53.046;8.276;2023-03-21T08:53:26;9.40;99.90
3788;DHT22;1909;53.046;8.276;2023-03-21T08:55:53;9.30;99.90
3788;DHT22;1909;53.046;8.276;2023-03-21T08:58:20;9.40;99.90
3788;DHT22;1909;53.046;8.276;2023-03-21T09:00:46;9.50;99.90
3788;DHT22;1909;53.046;8.276;2023-03-21T09:03:13;9.50;99.90
3788;DHT22;1909;53.046;8.276;2023-03-21T09:05:39;9.50;99.90
3788;DHT22;1909;53.046;8.276;2023-03-21T09:08:06;9.40;99.90
3788;DHT22;1909;53.046;8.276;2023-03-21T09:10:34;9.50;99.90
3788;DHT22;1909;53.046;8.276;2023-03-21T09:13:00;9.50;99.90
3788;DHT22;1909;53.046;8.276;2023-03-21T09:15:27;9.50;99.90
3788;DHT22;1909;53.046;8.276;2023-03-21T09:17:54;9.40;99.90
3788;DHT22;1909;53.046;8.276;2023-03-21T09:20:24;9.40;99.90
3788;DHT22;1909;53.046;8.276;2023-03-21T09:22:55;9.50;99.90
3788;DHT22;1909;53.046;8.276;2023-03-21T09:25:22;9.50;99.90
3788;DHT22;1909;53.046;8.276;2023-03-21T09:27:50;9.50;99.90
3788;DHT22;1909;53.046;8.276;2023-03-21T09:30:19;9.50;99.90
3788;DHT22;1909;53.046;8.276;2023-03-21T09:32:47;9.60;99.90
3788;DHT22;1909;53.046;8.276;2023-03-21T09:35:14;9.50;99.90
3788;DHT22;1909;53.046;8.276;2023-03-21T09:37:42;9.60;99.90
3788;DHT22;1909;53.046;8.276;2023-03-21T09:40:13;9.60;99.90
3788;DHT22;1909;53.046;8.276;2023-03-21T09:42:41;9.60;99.90
3788;DHT22;1909;53.046;8.276;2023-03-21T09:45:17;9.80;99.90
3788;DHT22;1909;53.046;8.276;2023-03-21T09:47:45;9.60;99.90
3788;DHT22;1909;53.046;8.276;2023-03-21T09:50:18;9.60;99.90
3788;DHT22;1909;53.046;8.276;2023-03-21T09:52:47;9.50;99.90
3788;DHT22;1909;53.046;8.276;2023-03-21T09:55:17;9.50;99.90
3788;DHT22;1909;53.046;8.276;2023-03-21T09:57:46;9.60;99.90
3788;DHT22;1909;53.046;8.276;2023-03-21T10:00:18;9.70;99.90
3788;DHT22;1909;53.046;8.276;2023-03-21T10:02:50;9.70;99.90
3788;DHT22;1909;53.046;8.276;2023-03-21T10:05:18;9.70;99.90
3788;DHT22;1909;53.046;8.276;2023-03-21T10:07:46;9.70;99.90
3788;DHT22;1909;53.046;8.276;2023-03-21T10:10:19;9.80;99.90
3788;DHT22;1909;53.046;8.276;2023-03-21T10:12:47;9.80;99.90
3788;DHT22;1909;53.046;8.276;2023-03-21T10:15:18;9.80;99.90
3788;DHT22;1909;53.046;8.276;2023-03-21T10:17:46;9.80;99.90
3788;DHT22;1909;53.046;8.276;2023-03-21T10:20:15;9.80;99.90
3788;DHT22;1909;53.046;8.276;2023-03-21T10:22:42;9.90;99.90
3788;DHT22;1909;53.046;8.276;2023-03-21T10:25:12;9.90;99.90
3788;DHT22;1909;53.046;8.276;2023-03-21T10:27:39;9.80;99.90
3788;DHT22;1909;53.046;8.276;2023-03-21T10:30:06;9.80;99.90
3788;DHT22;1909;53.046;8.276;2023-03-21T10:32:36;9.80;99.90
3788;DHT22;1909;53.046;8.276;2023-03-21T10:35:03;9.90;99.90
3788;DHT22;1909;53.046;8.276;2023-03-21T10:37:30;9.90;99.90
3788;DHT22;1909;53.046;8.276;2023-03-21T10:39:57;9.80;99.90
3788;DHT22;1909;53.046;8.276;2023-03-21T10:42:24;9.90;99.90
3788;DHT22;1909;53.046;8.276;2023-03-21T10:44:52;9.80;99.90
3788;DHT22;1909;53.046;8.276;2023-03-21T10:47:19;9.80;99.90
3788;DHT22;1909;53.046;8.276;2023-03-21T10:49:47;9.90;99.90
3788;DHT22;1909;53.046;8.276;2023-03-21T10:52:17;10.00;99.90
3788;DHT22;1909;53.046;8.276;2023-03-21T10:54:44;10.10;99.90
3788;DHT22;1909;53.046;8.276;2023-03-21T10:57:11;10.00;99.90
3788;DHT22;1909;53.046;8.276;2023-03-21T10:59:39;10.10;99.90
3788;DHT22;1909;53.046;8.276;2023-03-21T11:02:11;10.00;99.90
3788;DHT22;1909;53.046;8.276;2023-03-21T11:04:41;10.00;99.90
3788;DHT22;1909;53.046;8.276;2023-03-21T11:07:10;10.10;99.90
3788;DHT22;1909;53.046;8.276;2023-03-21T11:09:42;10.10;99.90
3788;DHT22;1909;53.046;8.276;2023-03-21T11:12:10;10.10;99.90
3788;DHT22;1909;53.046;8.276;2023-03-21T11:14:38;10.00;99.90
3788;DHT22;1909;53.046;8.276;2023-03-21T11:19:56;10.10;99.90
3788;DHT22;1909;53.046;8.276;2023-03-21T11:22:25;10.20;99.90
3788;DHT22;1909;53.046;8.276;2023-03-21T11:24:53;10.20;99.90
3788;DHT22;1909;53.046;8.276;2023-03-21T11:27:22;10.20;99.90
3788;DHT22;1909;53.046;8.276;2023-03-21T11:29:53;10.20;99.90
3788;DHT22;1909;53.046;8.276;2023-03-21T11:32:22;10.20;99.90
3788;DHT22;1909;53.046;8.276;2023-03-21T11:34:50;10.20;99.90
3788;DHT22;1909;53.046;8.276;2023-03-21T11:37:19;10.40;99.90
3788;DHT22;1909;53.046;8.276;2023-03-21T11:39:47;10.50;99.90
3788;DHT22;1909;53.046;8.276;2023-03-21T11:42:26;10.40;99.90
3788;DHT22;1909;53.046;8.276;2023-03-21T11:44:57;10.30;99.90
3788;DHT22;1909;53.046;8.276;2023-03-21T11:47:25;10.30;99.90
3788;DHT22;1909;53.046;8.276;2023-03-21T11:49:52;10.40;99.90
3788;DHT22;1909;53.046;8.276;2023-03-21T11:52:22;10.40;99.90
3788;DHT22;1909;53.046;8.276;2023-03-21T11:54:59;10.40;99.90
3788;DHT22;1909;53.046;8.276;2023-03-21T11:57:30;10.30;99.90
3788;DHT22;1909;53.046;8.276;2023-03-21T12:00:03;10.30;99.90
3788;DHT22;1909;53.046;8.276;2023-03-21T12:02:51;10.30;99.90
3788;DHT22;1909;53.046;8.276;2023-03-21T12:05:22;10.30;99.90
3788;DHT22;1909;53.046;8.276;2023-03-21T12:07:53;10.40;99.90
3788;DHT22;1909;53.046;8.276;2023-03-21T12:10:27;10.50;99.90
3788;DHT22;1909;53.046;8.276;2023-03-21T12:12:58;10.40;99.90
3788;DHT22;1909;53.046;8.276;2023-03-21T12:15:28;10.40;99.90
3788;DHT22;1909;53.046;8.276;2023-03-21T12:17:57;10.40;99.90
3788;DHT22;1909;53.046;8.276;2023-03-21T12:20:29;10.40;99.90
3788;DHT22;1909;53.046;8.276;2023-03-21T12:23:01;10.50;99.90
3788;DHT22;1909;53.046;8.276;2023-03-21T12:25:36;10.50;99.90
3788;DHT22;1909;53.046;8.276;2023-03-21T12:28:07;10.40;99.90
3788;DHT22;1909;53.046;8.276;2023-03-21T12:30:40;10.40;99.90
3788;DHT22;1909;53.046;8.276;2023-03-21T12:33:12;10.50;99.90
3788;DHT22;1909;53.046;8.276;2023-03-21T12:35:46;10.50;99.90
3788;DHT22;1909;53.046;8.276;2023-03-21T12:38:16;10.50;99.90
3788;DHT22;1909;53.046;8.276;2023-03-21T12:40:49;10.50;99.90
3788;DHT22;1909;53.046;8.276;2023-03-21T12:43:21;10.50;99.90
3788;DHT22;1909;53.046;8.276;2023-03-21T12:45:50;10.50;99.90
3788;DHT22;1909;53.046;8.276;2023-03-21T12:48:18;10.50;99.90
3788;DHT22;1909;53.046;8.276;2023-03-21T12:50:46;10.50;99.90
3788;DHT22;1909;53.046;8.276;2023-03-21T12:53:24;10.60;99.90
3788;DHT22;1909;53.046;8.276;2023-03-21T12:55:54;10.50;99.90
3788;DHT22;1909;53.046;8.276;2023-03-21T12:58:22;10.50;99.90
3788;DHT22;1909;53.046;8.276;2023-03-21T13:00:50;10.50;99.90
3788;DHT22;1909;53.046;8.276;2023-03-21T13:03:18;10.60;99.90
3788;DHT22;1909;53.046;8.276;2023-03-21T13:05:49;10.60;99.90
3788;DHT22;1909;53.046;8.276;2023-03-21T13:08:17;10.60;99.90
3788;DHT22;1909;53.046;8.276;2023-03-21T13:10:44;10.60;99.90
3788;DHT22;1909;53.046;8.276;2023-03-21T13:13:14;10.50;99.90
3788;DHT22;1909;53.046;8.276;2023-03-21T13:18:44;10.50;99.90
3788;DHT22;1909;53.046;8.276;2023-03-21T13:21:15;10.50;99.90
3788;DHT22;1909;53.046;8.276;2023-03-21T13:23:53;10.60;99.90
3788;DHT22;1909;53.046;8.276;2023-03-21T13:26:30;10.60;99.90
3788;DHT22;1909;53.046;8.276;2023-03-21T13:28:58;10.60;99.90
3788;DHT22;1909;53.046;8.276;2023-03-21T13:31:25;10.60;99.90
3788;DHT22;1909;53.046;8.276;2023-03-21T13:33:52;10.70;99.90
3788;DHT22;1909;53.046;8.276;2023-03-21T13:36:21;10.70;99.90
3788;DHT22;1909;53.046;8.276;2023-03-21T13:38:49;10.70;99.90
3788;DHT22;1909;53.046;8.276;2023-03-21T13:41:16;10.70;99.90
3788;DHT22;1909;53.046;8.276;2023-03-21T13:43:47;10.70;99.90
3788;DHT22;1909;53.046;8.276;2023-03-21T13:46:33;10.70;99.90
3788;DHT22;1909;53.046;8.276;2023-03-21T13:49:00;10.70;99.90
3788;DHT22;1909;53.046;8.276;2023-03-21T13:51:37;10.70;99.90
3788;DHT22;1909;53.046;8.276;2023-03-21T13:54:15;10.70;99.90
3788;DHT22;1909;53.046;8.276;2023-03-21T13:56:50;10.70;99.90
3788;DHT22;1909;53.046;8.276;2023-03-21T13:59:17;10.70;99.90
3788;DHT22;1909;53.046;8.276;2023-03-21T14:01:58;10.70;99.90
3788;DHT22;1909;53.046;8.276;2023-03-21T14:04:25;10.70;99.90
3788;DHT22;1909;53.046;8.276;2023-03-21T14:06:55;10.70;99.90
3788;DHT22;1909;53.046;8.276;2023-03-21T14:09:26;10.70;99.90
3788;DHT22;1909;53.046;8.276;2023-03-21T14:11:54;10.80;99.90
3788;DHT22;1909;53.046;8.276;2023-03-21T14:14:22;10.70;99.90
3788;DHT22;1909;53.046;8.276;2023-03-21T14:16:51;10.70;99.90
3788;DHT22;1909;53.046;8.276;2023-03-21T14:19:19;10.70;99.90
3788;DHT22;1909;53.046;8.276;2023-03-21T14:21:46;10.70;99.90
3788;DHT22;1909;53.046;8.276;2023-03-21T14:24:18;10.80;99.90
3788;DHT22;1909;53.046;8.276;2023-03-21T14:26:46;10.80;99.90
3788;DHT22;1909;53.046;8.276;2023-03-21T14:29:15;10.80;99.90
3788;DHT22;1909;53.046;8.276;2023-03-21T14:31:44;10.80;99.90
3788;DHT22;1909;53.046;8.276;2023-03-21T14:34:10;10.70;99.90
3788;DHT22;1909;53.046;8.276;2023-03-21T14:36:40;10.80;99.90
3788;DHT22;1909;53.046;8.276;2023-03-21T14:39:11;10.80;99.90
3788;DHT22;1909;53.046;8.276;2023-03-21T14:41:42;10.80;99.90
3788;DHT22;1909;53.046;8.276;2023-03-21T14:44:16;10.80;99.90
3788;DHT22;1909;53.046;8.276;2023-03-21T14:46:46;10.80;99.90
3788;DHT22;1909;53.046;8.276;2023-03-21T14:49:16;10.80;99.90
3788;DHT22;1909;53.046;8.276;2023-03-21T14:51:45;10.80;99.90
3788;DHT22;1909;53.046;8.276;2023-03-21T14:54:14;10.80;99.90
3788;DHT22;1909;53.046;8.276;2023-03-21T14:56:42;10.90;99.90
3788;DHT22;1909;53.046;8.276;2023-03-21T14:59:10;10.90;99.90
3788;DHT22;1909;53.046;8.276;2023-03-21T15:01:37;10.90;99.90
3788;DHT22;1909;53.046;8.276;2023-03-21T15:04:04;10.90;99.90
3788;DHT22;1909;53.046;8.276;2023-03-21T15:06:31;10.90;99.90
3788;DHT22;1909;53.046;8.276;2023-03-21T15:09:02;10.90;99.90
3788;DHT22;1909;53.046;8.276;2023-03-21T15:11:29;10.90;99.90
3788;DHT22;1909;53.046;8.276;2023-03-21T15:13:57;10.90;99.90
3788;DHT22;1909;53.046;8.276;2023-03-21T15:16:24;10.90;99.90
3788;DHT22;1909;53.046;8.276;2023-03-21T15:18:51;11.00;99.90
3788;DHT22;1909;53.046;8.276;2023-03-21T15:21:18;10.90;99.90
3788;DHT22;1909;53.046;8.276;2023-03-21T15:23:47;11.00;99.90
3788;DHT22;1909;53.046;8.276;2023-03-21T15:26:18;11.00;99.90
3788;DHT22;1909;53.046;8.276;2023-03-21T15:28:46;11.00;99.90
3788;DHT22;1909;53.046;8.276;2023-03-21T15:31:14;11.00;99.90
3788;DHT22;1909;53.046;8.276;2023-03-21T15:33:44;11.00;99.90
3788;DHT22;1909;53.046;8.276;2023-03-21T15:36:10;11.00;99.90
3788;DHT22;1909;53.046;8.276;2023-03-21T15:38:38;11.00;99.90
3788;DHT22;1909;53.046;8.276;2023-03-21T15:41:12;11.00;99.90
3788;DHT22;1909;53.046;8.276;2023-03-21T15:43:41;11.00;99.90
3788;DHT22;1909;53.046;8.276;2023-03-21T15:46:12;10.90;99.90
3788;DHT22;1909;53.046;8.276;2023-03-21T15:48:39;11.00;99.90
3788;DHT22;1909;53.046;8.276;2023-03-21T15:51:06;11.00;99.90
3788;DHT22;1909;53.046;8.276;2023-03-21T15:53:33;11.00;99.90
3788;DHT22;1909;53.046;8.276;2023-03-21T15:56:01;11.00;99.90
3788;DHT22;1909;53.046;8.276;2023-03-21T15:58:31;11.00;99.90
3788;DHT22;1909;53.046;8.276;2023-03-21T16:01:02;11.00;99.90
3788;DHT22;1909;53.046;8.276;2023-03-21T16:03:31;11.00;99.90
3788;DHT22;1909;53.046;8.276;2023-03-21T16:06:04;11.00;99.90
3788;DHT22;1909;53.046;8.276;2023-03-21T16:08:31;11.00;99.90
3788;DHT22;1909;53.046;8.276;2023-03-21T16:11:04;11.00;99.90
3788;DHT22;1909;53.046;8.276;2023-03-21T16:13:31;11.00;99.90
3788;DHT22;1909;53.046;8.276;2023-03-21T16:15:58;11.00;99.90
3788;DHT22;1909;53.046;8.276;2023-03-21T16:18:26;11.00;99.90
3788;DHT22;1909;53.046;8.276;2023-03-21T16:20:53;11.00;99.90
3788;DHT22;1909;53.046;8.276;2023-03-21T16:23:21;11.00;99.90
3788;DHT22;1909;53.046;8.276;2023-03-21T16:25:48;11.00;99.90
3788;DHT22;1909;53.046;8.276;2023-03-21T16:28:20;11.00;99.90
3788;DHT22;1909;53.046;8.276;2023-03-21T16:30:46;11.00;99.90